createdAt,value
2023-04-14T00:01:23.142Z,18.90
2023-04-14T00:03:49.871Z,18.90
2023-04-14T00:06:16.602Z,18.90
2023-04-14T00:08:43.292Z,18.90
2023-04-14T00:11:10.018Z,18.90
2023-04-14T00:13:37.146Z,18.90
2023-04-14T00:16:04.030Z,18.90
2023-04-14T00:18:30.704Z,18.90
2023-04-14T00:20:57.387Z,18.90
2023-04-14T00:23:24.038Z,19.00
2023-04-14T00:25:51.021Z,18.90
2023-04-14T00:28:17.627Z,18.80
2023-04-14T00:30:44.342Z,18.80
2023-04-14T00:33:11.155Z,19.00
2023-04-14T00:35:37.871Z,18.80
2023-04-14T00:38:04.524Z,18.80
2023-04-14T00:40:31.201Z,19.00
2023-04-14T00:42:57.838Z,18.70
2023-04-14T00:45:25.915Z,18.80
2023-04-14T00:47:52.867Z,18.80
2023-04-14T00:50:21.346Z,18.80
2023-04-14T00:52:49.735Z,18.80
2023-04-14T00:55:19.860Z,18.80
2023-04-14T00:57:47.256Z,19.00
2023-04-14T01:00:14.205Z,18.80
2023-04-14T01:02:41.344Z,18.80
2023-04-14T01:05:08.540Z,18.80
2023-04-14T01:07:35.851Z,18.80
2023-04-14T01:10:03.739Z,18.80
2023-04-14T01:13:05.272Z,18.80
2023-04-14T01:15:39.306Z,18.80
2023-04-14T01:18:39.944Z,18.80
2023-04-14T01:21:11.500Z,18.80
2023-04-14T01:23:42.458Z,18.70
2023-04-14T01:26:21.950Z,18.70
2023-04-14T01:29:20.428Z,18.80
2023-04-14T01:32:06.050Z,18.80
2023-04-14T01:34:42.390Z,18.70
2023-04-14T01:37:15.631Z,18.80
2023-04-14T01:39:48.299Z,18.80
2023-04-14T01:42:19.693Z,18.80
2023-04-14T01:44:52.268Z,18.60
2023-04-14T01:47:21.501Z,18.80
2023-04-14T01:49:51.554Z,18.70
2023-04-14T01:52:19.161Z,18.80
2023-04-14T01:54:49.557Z,18.80
2023-04-14T01:57:19.253Z,18.80
2023-04-14T01:59:48.085Z,18.90
2023-04-14T02:02:15.911Z,18.90
2023-04-14T02:04:43.923Z,18.90
2023-04-14T02:07:12.562Z,19.00
2023-04-14T02:09:41.763Z,19.00
2023-04-14T02:12:11.752Z,19.00
2023-04-14T02:14:41.792Z,19.00
2023-04-14T02:17:11.369Z,18.90
2023-04-14T02:19:38.918Z,19.10
2023-04-14T02:22:05.981Z,19.10
2023-04-14T02:24:32.789Z,19.10
2023-04-14T02:27:08.756Z,19.20
2023-04-14T02:29:40.500Z,19.20
2023-04-14T02:32:12.261Z,19.30
2023-04-14T02:34:48.939Z,19.30
2023-04-14T02:37:20.272Z,19.30
2023-04-14T02:39:52.307Z,19.20
2023-04-14T02:42:22.653Z,19.40
2023-04-14T02:44:55.074Z,19.10
2023-04-14T02:47:29.527Z,19.10
2023-04-14T02:49:58.869Z,19.10
2023-04-14T02:52:29.347Z,19.20
2023-04-14T02:54:57.639Z,19.10
2023-04-14T02:57:28.937Z,19.20
2023-04-14T02:59:57.260Z,19.10
2023-04-14T03:02:24.803Z,19.10
2023-04-14T03:04:53.279Z,19.10
2023-04-14T03:07:21.684Z,19.00
2023-04-14T03:09:50.493Z,19.10
2023-04-14T03:12:19.017Z,19.00
2023-04-14T03:14:45.887Z,19.00
2023-04-14T03:17:14.725Z,19.10
2023-04-14T03:19:43.792Z,19.00
2023-04-14T03:22:12.428Z,19.10
2023-04-14T03:24:40.326Z,19.10
2023-04-14T03:27:14.942Z,19.00
2023-04-14T03:29:53.859Z,19.00
2023-04-14T03:32:25.746Z,19.00
2023-04-14T03:34:56.523Z,19.00
2023-04-14T03:37:26.274Z,19.00
2023-04-14T03:39:54.062Z,19.20
2023-04-14T03:42:22.287Z,19.20
2023-04-14T03:44:53.179Z,19.20
2023-04-14T03:47:22.754Z,19.10
2023-04-14T03:49:51.799Z,19.00
2023-04-14T03:52:21.018Z,19.20
2023-04-14T03:54:49.367Z,19.10
2023-04-14T03:57:17.690Z,19.10
2023-04-14T03:59:46.963Z,19.20
2023-04-14T04:02:15.020Z,19.20
2023-04-14T04:04:43.267Z,19.20
2023-04-14T04:07:13.514Z,19.10
2023-04-14T04:09:42.772Z,19.20
2023-04-14T04:12:13.110Z,19.10
2023-04-14T04:14:42.875Z,19.10
2023-04-14T04:17:12.432Z,19.00
2023-04-14T04:19:40.108Z,19.00
2023-04-14T04:22:07.907Z,19.10
2023-04-14T04:24:39.267Z,19.00
2023-04-14T04:27:09.804Z,19.00
2023-04-14T04:29:39.441Z,18.90
2023-04-14T04:32:06.612Z,19.00
2023-04-14T04:34:34.420Z,18.90
2023-04-14T04:37:01.557Z,19.00
2023-04-14T04:39:30.008Z,18.90
2023-04-14T04:42:03.971Z,19.00
2023-04-14T04:44:32.706Z,18.90
2023-04-14T04:46:59.958Z,18.90
2023-04-14T04:49:27.226Z,18.90
2023-04-14T04:51:54.280Z,18.90
2023-04-14T04:54:21.091Z,18.90
2023-04-14T04:56:47.773Z,18.90
2023-04-14T04:59:14.446Z,18.90
2023-04-14T05:01:41.587Z,19.10
2023-04-14T05:04:08.291Z,19.00
2023-04-14T05:06:37.405Z,18.90
2023-04-14T05:09:04.819Z,18.90
2023-04-14T05:11:32.844Z,18.90
2023-04-14T05:13:59.516Z,18.90
2023-04-14T05:16:28.175Z,18.90
2023-04-14T05:18:54.930Z,18.90
2023-04-14T05:21:22.118Z,18.90
2023-04-14T05:23:49.211Z,19.10
2023-04-14T05:28:46.356Z,18.90
2023-04-14T05:31:13.124Z,19.00
2023-04-14T05:33:40.059Z,19.00
2023-04-14T05:36:07.146Z,19.20
2023-04-14T05:38:37.719Z,19.00
2023-04-14T05:41:04.379Z,19.10
2023-04-14T05:43:31.087Z,19.10
2023-04-14T05:45:58.533Z,19.10
2023-04-14T05:48:27.975Z,19.10
2023-04-14T05:50:54.639Z,19.00
2023-04-14T05:53:21.531Z,19.30
2023-04-14T05:55:50.897Z,19.10
2023-04-14T05:58:18.153Z,19.10
2023-04-14T06:00:44.807Z,19.30
2023-04-14T06:03:11.842Z,19.10
2023-04-14T06:05:38.638Z,19.10
2023-04-14T06:08:05.666Z,19.10
2023-04-14T06:10:32.288Z,19.10
2023-04-14T06:12:58.895Z,19.10
2023-04-14T06:15:28.275Z,19.10
2023-04-14T06:17:55.596Z,19.10
2023-04-14T06:20:22.361Z,19.30
2023-04-14T06:22:48.966Z,19.00
2023-04-14T06:25:15.668Z,19.10
2023-04-14T06:27:43.570Z,19.10
2023-04-14T06:30:10.604Z,19.00
2023-04-14T06:32:37.309Z,19.10
2023-04-14T06:35:05.163Z,19.10
2023-04-14T06:37:32.302Z,19.10
2023-04-14T06:39:59.219Z,19.00
2023-04-14T06:42:26.179Z,19.00
2023-04-14T06:44:52.842Z,19.00
2023-04-14T06:47:23.085Z,19.00
2023-04-14T06:49:50.028Z,19.00
2023-04-14T06:52:16.697Z,19.10
2023-04-14T06:54:43.389Z,19.00
2023-04-14T06:57:10.039Z,19.00
2023-04-14T06:59:37.480Z,19.00
2023-04-14T07:02:04.495Z,19.10
2023-04-14T07:04:31.300Z,19.00
2023-04-14T07:07:01.610Z,19.00
2023-04-14T07:09:29.267Z,19.10
2023-04-14T07:11:57.565Z,19.00
2023-04-14T07:14:24.594Z,19.10
2023-04-14T07:16:52.169Z,19.10
2023-04-14T07:19:19.498Z,19.10
2023-04-14T07:21:47.106Z,19.10
2023-04-14T07:24:15.514Z,19.10
2023-04-14T07:26:44.123Z,19.10
2023-04-14T07:29:10.889Z,19.10
2023-04-14T07:31:38.840Z,19.20
2023-04-14T07:34:06.058Z,19.20
2023-04-14T07:36:33.207Z,19.10
2023-04-14T07:38:59.966Z,19.00
2023-04-14T07:41:27.877Z,19.20
2023-04-14T07:43:59.269Z,19.00
2023-04-14T07:46:27.661Z,19.00
2023-04-14T07:48:54.568Z,19.00
2023-04-14T07:51:21.392Z,19.10
2023-04-14T07:53:48.124Z,19.00
2023-04-14T07:56:15.494Z,19.00
2023-04-14T07:58:42.137Z,19.00
2023-04-14T08:01:08.966Z,19.00
2023-04-14T08:03:38.448Z,19.00
2023-04-14T08:06:06.850Z,19.20
2023-04-14T08:08:34.447Z,19.10
2023-04-14T08:11:01.319Z,19.10
2023-04-14T08:13:28.009Z,19.00
2023-04-14T08:15:54.765Z,19.10
2023-04-14T08:18:21.760Z,19.20
2023-04-14T08:20:48.625Z,19.10
2023-04-14T08:23:16.110Z,19.00
2023-04-14T08:25:43.379Z,19.10
2023-04-14T08:28:10.106Z,19.00
2023-04-14T08:30:37.040Z,19.10
2023-04-14T08:33:04.059Z,19.00
2023-04-14T08:35:37.344Z,19.00
2023-04-14T08:38:07.453Z,19.00
2023-04-14T08:40:42.016Z,19.20
2023-04-14T08:43:10.219Z,19.00
2023-04-14T08:45:38.004Z,19.00
2023-04-14T08:48:05.738Z,19.00
2023-04-14T08:50:42.220Z,19.00
2023-04-14T08:53:10.366Z,19.10
2023-04-14T08:55:41.604Z,19.00
2023-04-14T08:58:10.588Z,19.00
2023-04-14T09:00:39.642Z,19.00
2023-04-14T09:03:07.376Z,19.10
2023-04-14T09:05:34.409Z,19.10
2023-04-14T09:08:01.937Z,19.20
2023-04-14T09:10:30.247Z,19.10
2023-04-14T09:12:57.412Z,19.20
2023-04-14T09:15:27.234Z,19.20
2023-04-14T09:17:55.072Z,19.20
2023-04-14T09:20:34.742Z,19.10
2023-04-14T09:23:04.578Z,19.10
2023-04-14T09:25:32.067Z,19.20
2023-04-14T09:27:59.071Z,19.10
2023-04-14T09:30:25.957Z,19.10
2023-04-14T09:32:53.911Z,19.20
2023-04-14T09:35:20.672Z,19.20
2023-04-14T09:37:48.650Z,19.30
2023-04-14T09:40:31.690Z,19.40
2023-04-14T09:42:58.669Z,19.50
2023-04-14T09:45:42.646Z,19.40
2023-04-14T09:48:10.819Z,19.40
2023-04-14T09:51:02.130Z,19.40
2023-04-14T09:53:29.900Z,19.50
2023-04-14T09:55:57.840Z,19.40
2023-04-14T09:58:27.254Z,19.30
2023-04-14T10:00:55.503Z,19.30
2023-04-14T10:03:41.149Z,19.50
2023-04-14T10:06:21.389Z,19.30
2023-04-14T10:08:50.284Z,19.30
2023-04-14T10:11:18.317Z,19.40
2023-04-14T10:13:55.732Z,19.30
2023-04-14T10:16:24.122Z,19.30
2023-04-14T10:18:51.962Z,19.40
2023-04-14T10:21:21.127Z,19.40
2023-04-14T10:23:48.198Z,19.50
2023-04-14T10:26:15.749Z,19.50
2023-04-14T10:28:45.163Z,19.50
2023-04-14T10:31:23.821Z,19.50
2023-04-14T10:33:50.800Z,19.50
2023-04-14T10:36:31.873Z,19.50
2023-04-14T10:39:01.178Z,19.50
2023-04-14T10:41:44.205Z,19.40
2023-04-14T10:44:31.742Z,19.50
2023-04-14T10:47:02.027Z,19.40
2023-04-14T10:49:33.837Z,19.50
2023-04-14T10:52:07.996Z,19.50
2023-04-14T10:54:51.892Z,19.50
2023-04-14T10:57:21.508Z,19.40
2023-04-14T10:59:49.302Z,19.40
2023-04-14T11:02:58.373Z,19.40
2023-04-14T11:05:28.162Z,19.30
2023-04-14T11:07:58.806Z,19.40
2023-04-14T11:10:30.991Z,19.30
2023-04-14T11:13:02.352Z,19.70
2023-04-14T11:15:51.788Z,19.50
2023-04-14T11:18:44.774Z,19.60
2023-04-14T11:21:14.385Z,19.60
2023-04-14T11:23:41.948Z,19.70
2023-04-14T11:26:11.020Z,19.70
2023-04-14T11:28:46.065Z,19.80
2023-04-14T11:31:15.945Z,19.80
2023-04-14T11:33:43.958Z,19.80
2023-04-14T11:36:12.899Z,19.90
2023-04-14T11:38:42.433Z,20.00
2023-04-14T11:41:09.921Z,19.70
2023-04-14T11:43:46.206Z,19.80
2023-04-14T11:46:13.103Z,19.90
2023-04-14T11:48:39.747Z,19.80
2023-04-14T11:51:06.586Z,19.80
2023-04-14T11:53:34.442Z,19.90
2023-04-14T11:56:01.368Z,19.90
2023-04-14T11:58:28.835Z,19.90
2023-04-14T12:00:57.488Z,19.80
2023-04-14T12:03:29.352Z,19.80
2023-04-14T12:06:01.271Z,19.90
2023-04-14T12:08:30.862Z,19.90
2023-04-14T12:10:57.709Z,19.90
2023-04-14T12:13:24.953Z,20.20
2023-04-14T12:15:52.866Z,19.90
2023-04-14T12:21:00.793Z,20.00
2023-04-14T12:23:27.500Z,19.90
2023-04-14T12:25:54.255Z,19.90
2023-04-14T12:28:30.709Z,19.90
2023-04-14T12:31:00.676Z,20.00
2023-04-14T12:33:28.573Z,19.90
2023-04-14T12:36:12.378Z,19.90
2023-04-14T12:38:39.797Z,19.80
2023-04-14T12:41:06.574Z,19.70
2023-04-14T12:43:35.386Z,19.70
2023-04-14T12:46:06.060Z,19.90
2023-04-14T12:48:48.842Z,19.70
2023-04-14T12:51:19.592Z,19.70
2023-04-14T12:53:47.959Z,19.60
2023-04-14T12:56:27.334Z,19.70
2023-04-14T12:58:54.259Z,19.70
2023-04-14T13:01:22.370Z,19.70
2023-04-14T13:03:51.248Z,19.70
2023-04-14T13:06:20.137Z,19.70
2023-04-14T13:08:52.327Z,19.50
2023-04-14T13:11:20.442Z,19.70
2023-04-14T13:13:47.301Z,19.70
2023-04-14T13:16:17.685Z,19.60
2023-04-14T13:18:47.877Z,19.70
2023-04-14T13:21:15.069Z,19.70
2023-04-14T13:23:41.944Z,19.60
2023-04-14T13:26:08.884Z,19.50
2023-04-14T13:28:36.727Z,19.40
2023-04-14T13:31:03.484Z,19.60
2023-04-14T13:33:30.979Z,19.60
2023-04-14T13:35:57.719Z,19.80
2023-04-14T13:38:24.485Z,19.80
2023-04-14T13:40:51.101Z,19.80
2023-04-14T13:43:18.935Z,19.80
2023-04-14T13:45:46.620Z,19.70
2023-04-14T13:48:13.757Z,19.80
2023-04-14T13:50:40.533Z,19.80
2023-04-14T13:53:07.288Z,19.80
2023-04-14T13:55:35.854Z,19.60
2023-04-14T13:58:02.512Z,19.60
2023-04-14T14:00:29.376Z,19.70
2023-04-14T14:02:56.107Z,19.80
2023-04-14T14:05:22.951Z,19.80
2023-04-14T14:07:49.715Z,19.90
2023-04-14T14:10:16.395Z,19.90
2023-04-14T14:12:43.071Z,19.90
2023-04-14T14:15:10.641Z,20.00
2023-04-14T14:17:37.985Z,19.90
2023-04-14T14:20:05.055Z,20.10
2023-04-14T14:22:31.673Z,20.00
2023-04-14T14:25:10.761Z,20.00
2023-04-14T14:27:42.523Z,20.00
2023-04-14T14:30:09.684Z,20.00
2023-04-14T14:32:36.604Z,20.00
2023-04-14T14:35:04.356Z,20.10
2023-04-14T14:37:30.969Z,20.10
2023-04-14T14:39:58.390Z,20.20
2023-04-14T14:42:25.725Z,20.10
2023-04-14T14:44:53.040Z,20.00
2023-04-14T14:47:19.756Z,20.10
2023-04-14T14:49:57.173Z,20.10
2023-04-14T14:52:34.086Z,20.10
2023-04-14T14:55:01.371Z,20.00
2023-04-14T14:57:29.643Z,20.00
2023-04-14T14:59:57.000Z,20.00
2023-04-14T15:02:24.972Z,20.10
2023-04-14T15:04:51.881Z,20.00
2023-04-14T15:07:18.503Z,20.00
2023-04-14T15:09:49.651Z,20.20
2023-04-14T15:12:16.463Z,20.00
2023-04-14T15:14:43.995Z,20.00
2023-04-14T15:17:10.641Z,20.00
2023-04-14T15:19:38.019Z,20.00
2023-04-14T15:22:04.663Z,19.90
2023-04-14T15:24:31.312Z,19.90
2023-04-14T15:26:58.022Z,19.90
2023-04-14T15:29:25.819Z,20.00
2023-04-14T15:31:52.526Z,19.90
2023-04-14T15:34:19.299Z,20.10
2023-04-14T15:36:45.961Z,20.00
2023-04-14T15:39:12.659Z,20.30
2023-04-14T15:41:39.322Z,20.10
2023-04-14T15:44:06.091Z,20.10
2023-04-14T15:46:32.851Z,20.10
2023-04-14T15:48:59.553Z,20.10
2023-04-14T15:51:26.294Z,20.00
2023-04-14T15:53:52.959Z,20.10
2023-04-14T15:56:22.955Z,20.00
2023-04-14T15:58:49.672Z,20.00
2023-04-14T16:01:16.425Z,20.00
2023-04-14T16:03:43.349Z,19.90
2023-04-14T16:06:10.130Z,19.90
2023-04-14T16:08:37.155Z,19.90
2023-04-14T16:11:03.853Z,19.90
2023-04-14T16:13:30.566Z,19.90
2023-04-14T16:15:58.431Z,19.90
2023-04-14T16:18:25.148Z,19.80
2023-04-14T16:20:51.880Z,19.90
2023-04-14T16:23:18.544Z,19.70
2023-04-14T16:25:49.556Z,19.70
2023-04-14T16:28:16.299Z,19.80
2023-04-14T16:30:43.055Z,19.90
2023-04-14T16:33:09.752Z,19.90
2023-04-14T16:35:36.470Z,19.90
2023-04-14T16:38:03.451Z,19.90
2023-04-14T16:40:30.136Z,19.90
2023-04-14T16:42:56.828Z,19.90
2023-04-14T16:45:23.527Z,19.90
2023-04-14T16:47:50.476Z,19.80
2023-04-14T16:50:17.230Z,20.00
2023-04-14T16:52:43.871Z,19.80
2023-04-14T16:55:10.959Z,19.90
2023-04-14T16:57:37.583Z,19.80
2023-04-14T17:00:04.659Z,19.90
2023-04-14T17:02:31.675Z,19.90
2023-04-14T17:04:58.492Z,19.90
2023-04-14T17:07:25.385Z,19.90
2023-04-14T17:09:52.077Z,19.90
2023-04-14T17:12:18.706Z,19.80
2023-04-14T17:14:45.359Z,20.00
2023-04-14T17:17:12.786Z,19.80
2023-04-14T17:19:39.437Z,20.00
2023-04-14T17:22:06.044Z,19.80
2023-04-14T17:24:33.555Z,19.90
2023-04-14T17:27:00.500Z,19.90
2023-04-14T17:29:27.140Z,19.80
2023-04-14T17:31:54.356Z,19.70
2023-04-14T17:34:21.095Z,19.70
2023-04-14T17:36:47.868Z,19.70
2023-04-14T17:39:15.180Z,19.60
2023-04-14T17:41:41.829Z,19.70
2023-04-14T17:44:08.572Z,19.70
2023-04-14T17:46:35.231Z,19.70
2023-04-14T17:49:02.037Z,19.70
2023-04-14T17:51:30.244Z,19.80
2023-04-14T17:53:57.499Z,19.80
2023-04-14T17:56:24.448Z,19.90
2023-04-14T17:58:54.180Z,19.80
2023-04-14T18:01:22.088Z,19.80
2023-04-14T18:03:49.170Z,19.80
2023-04-14T18:06:16.695Z,19.80
2023-04-14T18:08:43.402Z,19.80
2023-04-14T18:11:10.352Z,19.80
2023-04-14T18:13:37.018Z,19.90
2023-04-14T18:16:04.370Z,19.80
2023-04-14T18:18:31.344Z,19.80
2023-04-14T18:20:58.178Z,19.80
2023-04-14T18:23:24.933Z,19.80
2023-04-14T18:28:31.947Z,19.80
2023-04-14T18:30:59.304Z,19.80
2023-04-14T18:33:27.175Z,19.90
2023-04-14T18:35:56.676Z,20.10
2023-04-14T18:38:24.712Z,19.80
2023-04-14T18:40:52.254Z,19.80
2023-04-14T18:43:18.954Z,19.80
2023-04-14T18:45:49.542Z,19.70
2023-04-14T18:48:16.921Z,19.80
2023-04-14T18:50:44.534Z,19.90
2023-04-14T18:53:12.167Z,19.70
2023-04-14T18:55:45.463Z,19.70
2023-04-14T18:58:12.930Z,19.80
2023-04-14T19:00:40.137Z,19.90
2023-04-14T19:03:08.512Z,19.80
2023-04-14T19:05:36.825Z,19.70
2023-04-14T19:08:04.594Z,19.80
2023-04-14T19:10:31.633Z,19.70
2023-04-14T19:12:58.445Z,19.80
2023-04-14T19:15:28.560Z,19.80
2023-04-14T19:17:55.800Z,19.80
2023-04-14T19:20:22.802Z,19.80
2023-04-14T19:22:49.691Z,19.80
2023-04-14T19:25:16.721Z,19.80
2023-04-14T19:27:43.579Z,19.80
2023-04-14T19:30:10.843Z,19.80
2023-04-14T19:32:37.593Z,19.90
2023-04-14T19:35:07.783Z,19.80
2023-04-14T19:37:35.156Z,19.90
2023-04-14T19:40:06.118Z,19.80
2023-04-14T19:42:33.283Z,19.80
2023-04-14T19:45:00.442Z,19.80
2023-04-14T19:47:27.344Z,19.80
2023-04-14T19:49:55.007Z,19.70
2023-04-14T19:52:22.217Z,19.80
2023-04-14T19:54:49.813Z,19.90
2023-04-14T19:57:16.754Z,19.80
2023-04-14T19:59:44.126Z,19.90
2023-04-14T20:02:13.179Z,20.00
2023-04-14T20:04:40.366Z,19.80
2023-04-14T20:07:07.352Z,19.90
2023-04-14T20:09:34.547Z,19.80
2023-04-14T20:12:02.060Z,19.80
2023-04-14T20:14:29.263Z,19.90
2023-04-14T20:16:56.474Z,20.00
2023-04-14T20:19:23.907Z,19.70
2023-04-14T20:21:50.923Z,19.80
2023-04-14T20:24:17.857Z,19.70
2023-04-14T20:26:45.022Z,19.70
2023-04-14T20:29:12.025Z,19.70
2023-04-14T20:31:39.614Z,19.80
2023-04-14T20:34:06.403Z,19.60
2023-04-14T20:36:35.842Z,19.70
2023-04-14T20:39:05.431Z,19.70
2023-04-14T20:41:33.809Z,19.50
2023-04-14T20:44:00.662Z,19.50
2023-04-14T20:46:27.845Z,19.60
2023-04-14T20:48:55.320Z,19.60
2023-04-14T20:51:22.585Z,19.60
2023-04-14T20:53:50.198Z,19.50
2023-04-14T20:56:16.920Z,19.60
2023-04-14T20:58:43.718Z,19.60
2023-04-14T21:01:10.404Z,19.50
2023-04-14T21:03:37.281Z,19.50
2023-04-14T21:06:04.241Z,19.50
2023-04-14T21:08:30.908Z,19.50
2023-04-14T21:11:14.610Z,19.30
2023-04-14T21:15:24.960Z,19.40
2023-04-14T21:16:30.360Z,19.50
2023-04-14T21:18:57.421Z,19.40
2023-04-14T21:21:24.303Z,19.50
2023-04-14T21:23:51.179Z,19.50
2023-04-14T21:26:17.824Z,19.50
2023-04-14T21:28:44.754Z,19.60
2023-04-14T21:31:11.600Z,19.40
2023-04-14T21:33:39.906Z,19.40
2023-04-14T21:36:07.051Z,19.50
2023-04-14T21:38:34.309Z,19.40
2023-04-14T21:41:01.242Z,19.50
2023-04-14T21:43:27.858Z,19.40
2023-04-14T21:45:54.638Z,19.40
2023-04-14T21:48:21.412Z,19.40
2023-04-14T21:50:48.115Z,19.40
2023-04-14T21:53:15.060Z,19.20
2023-04-14T21:55:42.559Z,19.30
2023-04-14T21:58:09.384Z,19.40
2023-04-14T22:00:37.179Z,19.30
2023-04-14T22:03:04.301Z,19.60
2023-04-14T22:05:31.083Z,19.30
2023-04-14T22:07:57.726Z,19.30
2023-04-14T22:10:31.549Z,19.30
2023-04-14T22:13:00.944Z,19.40
2023-04-14T22:15:27.803Z,19.40
2023-04-14T22:17:54.649Z,19.40
2023-04-14T22:20:23.169Z,19.40
2023-04-14T22:22:49.859Z,19.30
2023-04-14T22:25:16.719Z,19.40
2023-04-14T22:27:43.367Z,19.30
2023-04-14T22:30:11.690Z,19.40
2023-04-14T22:32:38.388Z,19.30
2023-04-14T22:35:05.358Z,19.40
2023-04-14T22:37:32.531Z,19.40
2023-04-14T22:40:02.188Z,19.40
2023-04-14T22:42:29.084Z,19.60
2023-04-14T22:44:55.712Z,19.30
2023-04-14T22:47:22.371Z,19.30
2023-04-14T22:49:50.636Z,19.50
2023-04-14T22:52:18.711Z,19.40
2023-04-14T22:54:45.836Z,19.50
2023-04-14T22:57:12.551Z,19.30
2023-04-14T22:59:39.255Z,19.50
2023-04-14T23:02:07.148Z,19.30
2023-04-14T23:04:34.050Z,19.40
2023-04-14T23:07:00.972Z,19.30
2023-04-14T23:09:30.336Z,19.30
2023-04-14T23:11:58.109Z,19.30
2023-04-14T23:14:25.479Z,19.30
2023-04-14T23:16:52.501Z,19.30
2023-04-14T23:19:19.517Z,19.30
2023-04-14T23:21:47.762Z,19.40
2023-04-14T23:24:14.468Z,19.30
2023-04-14T23:26:41.173Z,19.20
2023-04-14T23:29:08.089Z,19.20
2023-04-14T23:31:34.799Z,19.50
2023-04-14T23:34:01.527Z,19.20
2023-04-14T23:36:28.165Z,19.20
2023-04-14T23:38:55.065Z,19.30
2023-04-14T23:41:21.814Z,19.20
2023-04-14T23:43:49.515Z,19.20
2023-04-14T23:46:16.214Z,19.30
2023-04-14T23:48:43.144Z,19.40
2023-04-14T23:51:18.290Z,19.50
2023-04-14T23:53:48.036Z,19.80
2023-04-14T23:56:14.672Z,19.80
2023-04-14T23:58:41.367Z,20.00
